createdAt,value
2019-04-16T00:00:49.654Z,11.03
2019-04-16T00:03:20.285Z,10.80
2019-04-16T00:05:52.697Z,11.97
2019-04-16T00:08:27.919Z,11.78
2019-04-16T00:13:30.616Z,11.20
2019-04-16T00:16:02.039Z,11.38
2019-04-16T00:18:31.975Z,12.58
2019-04-16T00:21:19.795Z,11.80
2019-04-16T00:24:03.174Z,12.58
2019-04-16T00:29:02.949Z,12.35
2019-04-16T00:31:34.413Z,11.97
2019-04-16T00:34:05.009Z,12.50
2019-04-16T00:36:34.905Z,11.80
2019-04-16T00:39:06.270Z,12.58
2019-04-16T00:41:36.262Z,11.78
2019-04-16T00:44:06.155Z,11.43
2019-04-16T00:46:37.221Z,11.83
2019-04-16T00:49:07.055Z,12.53
2019-04-16T00:51:36.885Z,12.05
2019-04-16T00:54:09.675Z,11.93
2019-04-16T00:56:38.171Z,12.35
2019-04-16T00:59:08.019Z,12.13
2019-04-16T01:01:37.911Z,11.30
2019-04-16T01:04:07.819Z,12.60
2019-04-16T01:06:37.884Z,12.10
2019-04-16T01:09:09.174Z,11.48
2019-04-16T01:11:39.075Z,12.07
2019-04-16T01:14:08.910Z,12.45
2019-04-16T01:16:38.797Z,11.60
2019-04-16T01:19:10.062Z,12.28
2019-04-16T01:21:44.622Z,11.65
2019-04-16T01:24:11.842Z,12.50
2019-04-16T01:26:41.738Z,12.35
2019-04-16T01:29:13.347Z,11.88
2019-04-16T01:32:02.196Z,12.50
2019-04-16T01:34:50.079Z,11.43
2019-04-16T01:37:36.492Z,11.43
2019-04-16T01:40:08.826Z,11.60
2019-04-16T01:42:38.722Z,12.25
2019-04-16T01:45:08.622Z,11.73
2019-04-16T01:47:38.517Z,11.78
2019-04-16T01:50:12.761Z,11.68
2019-04-16T01:52:41.027Z,11.88
2019-04-16T01:55:11.146Z,11.43
2019-04-16T01:57:42.161Z,12.10
2019-04-16T02:00:12.226Z,11.85
2019-04-16T02:02:43.436Z,11.40
2019-04-16T02:05:13.646Z,11.68
2019-04-16T02:07:43.473Z,11.30
2019-04-16T02:10:13.493Z,11.43
2019-04-16T02:12:43.857Z,12.53
2019-04-16T02:15:14.349Z,12.53
2019-04-16T02:17:44.253Z,11.48
2019-04-16T02:20:14.157Z,12.37
2019-04-16T02:22:45.101Z,11.20
2019-04-16T02:25:19.041Z,11.43
2019-04-16T02:27:47.261Z,11.25
2019-04-16T02:30:17.089Z,10.85
2019-04-16T02:32:46.992Z,11.38
2019-04-16T02:35:16.805Z,11.33
2019-04-16T02:37:46.702Z,11.18
2019-04-16T02:40:18.581Z,10.80
2019-04-16T02:42:47.978Z,11.12
2019-04-16T02:45:23.065Z,11.38
2019-04-16T02:47:49.387Z,11.30
2019-04-16T02:50:20.945Z,11.35
2019-04-16T02:52:52.631Z,11.48
2019-04-16T02:55:27.100Z,11.68
2019-04-16T02:57:59.969Z,11.48
2019-04-16T03:03:27.686Z,12.35
2019-04-16T03:06:00.695Z,12.58
2019-04-16T03:08:29.630Z,13.03
2019-04-16T03:10:59.525Z,12.88
2019-04-16T03:13:29.449Z,13.08
2019-04-16T03:16:07.628Z,13.22
2019-04-16T03:18:39.352Z,13.80
2019-04-16T03:21:09.242Z,14.75
2019-04-16T03:23:40.159Z,13.93
2019-04-16T03:26:10.051Z,14.70
2019-04-16T03:28:39.954Z,15.03
2019-04-16T03:31:18.810Z,15.08
2019-04-16T03:33:48.613Z,15.18
2019-04-16T03:36:13.153Z,15.98
2019-04-16T03:38:43.039Z,15.78
2019-04-16T03:41:13.087Z,16.65
2019-04-16T03:43:43.015Z,16.30
2019-04-16T03:46:14.159Z,16.77
2019-04-16T03:48:45.252Z,16.23
2019-04-16T03:51:15.091Z,16.55
2019-04-16T03:53:46.529Z,17.15
2019-04-16T03:56:16.365Z,17.48
2019-04-16T03:58:46.271Z,18.23
2019-04-16T04:01:16.099Z,18.45
2019-04-16T04:03:45.928Z,18.00
2019-04-16T04:06:15.742Z,17.87
2019-04-16T04:08:48.248Z,17.35
2019-04-16T04:11:17.143Z,16.17
2019-04-16T04:13:49.789Z,18.17
2019-04-16T04:16:18.693Z,17.37
2019-04-16T04:18:48.514Z,17.27
2019-04-16T04:21:21.127Z,16.17
2019-04-16T04:23:49.936Z,17.95
2019-04-16T04:26:19.822Z,17.07
2019-04-16T04:28:51.776Z,16.67
2019-04-16T04:31:21.086Z,16.02
2019-04-16T04:33:51.042Z,16.25
2019-04-16T04:36:22.959Z,15.32
2019-04-16T04:38:52.300Z,15.43
2019-04-16T04:41:23.103Z,14.38
2019-04-16T04:43:53.626Z,13.93
2019-04-16T04:46:23.444Z,14.20
2019-04-16T04:48:55.713Z,14.23
2019-04-16T04:51:24.776Z,15.18
2019-04-16T04:53:54.801Z,14.50
2019-04-16T04:56:27.655Z,14.68
2019-04-16T04:58:56.118Z,13.38
2019-04-16T05:01:25.945Z,13.55
2019-04-16T05:04:12.420Z,13.58
2019-04-16T05:06:46.553Z,13.72
2019-04-16T05:09:16.461Z,13.25
2019-04-16T05:11:48.396Z,13.32
2019-04-16T05:14:17.721Z,13.80
2019-04-16T05:16:47.608Z,13.72
2019-04-16T05:19:17.510Z,14.33
2019-04-16T05:21:49.677Z,14.28
2019-04-16T05:24:18.869Z,14.43
2019-04-16T05:26:48.761Z,14.90
2019-04-16T05:29:18.772Z,14.20
2019-04-16T05:31:48.888Z,14.83
2019-04-16T05:34:18.808Z,15.10
2019-04-16T05:36:48.677Z,14.58
2019-04-16T05:39:18.518Z,14.80
2019-04-16T05:41:50.466Z,15.70
2019-04-16T05:44:19.854Z,15.88
2019-04-16T05:46:49.758Z,15.32
2019-04-16T05:49:24.645Z,16.45
2019-04-16T05:51:52.299Z,15.20
2019-04-16T05:54:35.768Z,14.63
2019-04-16T06:02:09.881Z,14.47
2019-04-16T06:04:39.711Z,14.95
2019-04-16T06:07:09.536Z,14.98
2019-04-16T06:09:41.415Z,15.80
2019-04-16T06:12:10.893Z,16.45
2019-04-16T06:14:46.466Z,15.43
2019-04-16T06:17:31.754Z,15.63
2019-04-16T06:20:12.454Z,16.07
2019-04-16T06:23:00.582Z,15.63
2019-04-16T06:25:29.020Z,15.85
2019-04-16T06:28:16.793Z,15.55
2019-04-16T06:30:48.247Z,16.75
2019-04-16T06:33:43.550Z,16.52
2019-04-16T06:36:26.983Z,17.35
2019-04-16T06:39:02.340Z,17.95
2019-04-16T06:41:52.698Z,17.32
2019-04-16T06:44:24.438Z,17.52
2019-04-16T06:47:04.627Z,16.07
2019-04-16T06:49:36.108Z,16.93
2019-04-16T06:52:16.667Z,17.32
2019-04-16T06:54:46.660Z,16.15
2019-04-16T06:57:35.616Z,16.07
2019-04-16T07:00:11.118Z,16.45
2019-04-16T07:03:01.887Z,16.50
2019-04-16T07:05:24.766Z,16.37
2019-04-16T07:08:17.721Z,15.80
2019-04-16T07:10:52.034Z,15.20
2019-04-16T07:13:21.910Z,15.43
2019-04-16T07:15:56.575Z,16.62
2019-04-16T07:20:53.871Z,15.45
2019-04-16T07:23:24.789Z,16.20
2019-04-16T07:25:55.228Z,16.25
2019-04-16T07:28:36.004Z,16.65
2019-04-16T07:31:31.867Z,15.93
2019-04-16T07:33:49.562Z,17.15
2019-04-16T07:36:24.152Z,18.15
2019-04-16T07:39:13.389Z,16.82
2019-04-16T07:41:52.773Z,17.62
2019-04-16T07:44:24.236Z,16.80
2019-04-16T07:47:12.123Z,16.82
2019-04-16T07:49:43.667Z,17.42
2019-04-16T07:52:18.097Z,18.37
2019-04-16T07:55:06.133Z,18.17
2019-04-16T07:57:36.114Z,15.85
2019-04-16T08:00:10.569Z,16.00
2019-04-16T08:02:40.473Z,15.78
2019-04-16T08:05:10.366Z,15.70
2019-04-16T08:07:40.339Z,14.90
2019-04-16T08:10:10.315Z,15.25
2019-04-16T08:12:42.343Z,15.18
2019-04-16T08:15:15.095Z,15.90
2019-04-16T08:17:43.955Z,17.05
2019-04-16T08:20:13.779Z,16.30
2019-04-16T08:22:47.285Z,16.02
2019-04-16T08:25:17.019Z,15.90
2019-04-16T08:27:47.319Z,15.63
2019-04-16T08:30:18.746Z,16.00
2019-04-16T08:32:48.858Z,15.48
2019-04-16T08:35:19.595Z,17.02
2019-04-16T08:37:49.644Z,16.60
2019-04-16T08:40:19.702Z,17.25
2019-04-16T08:42:49.532Z,16.70
2019-04-16T08:45:20.753Z,16.48
2019-04-16T08:47:51.913Z,15.58
2019-04-16T08:50:25.843Z,16.27
2019-04-16T08:52:53.419Z,17.07
2019-04-16T08:55:24.174Z,16.82
2019-04-16T08:57:54.152Z,17.40
2019-04-16T09:00:24.054Z,18.35
2019-04-16T09:02:57.574Z,18.05
2019-04-16T09:05:25.385Z,18.40
2019-04-16T09:08:10.902Z,19.62
2019-04-16T09:10:30.925Z,18.25
2019-04-16T09:13:04.321Z,18.37
2019-04-16T09:15:34.778Z,18.65
2019-04-16T09:18:06.344Z,19.35
2019-04-16T09:20:37.837Z,19.37
2019-04-16T09:23:08.318Z,18.40
2019-04-16T09:25:45.396Z,17.90
2019-04-16T09:28:25.851Z,17.90
2019-04-16T09:31:06.565Z,18.37
2019-04-16T09:33:40.776Z,18.00
2019-04-16T09:36:27.230Z,19.75
2019-04-16T09:38:58.757Z,17.65
2019-04-16T09:41:30.318Z,18.70
2019-04-16T09:44:01.184Z,17.77
2019-04-16T09:46:50.361Z,17.77
2019-04-16T09:49:04.730Z,17.62
2019-04-16T09:51:35.266Z,17.27
2019-04-16T09:54:05.166Z,16.75
2019-04-16T09:56:35.064Z,17.45
2019-04-16T09:59:06.605Z,18.57
2019-04-16T10:01:43.953Z,17.30
2019-04-16T10:04:15.651Z,17.23
2019-04-16T10:06:45.836Z,18.10
2019-04-16T10:09:19.835Z,18.55
2019-04-16T10:11:47.294Z,19.95
2019-04-16T10:14:17.509Z,19.75
2019-04-16T10:16:47.627Z,20.20
2019-04-16T10:19:19.587Z,20.30
2019-04-16T10:21:52.940Z,20.32
2019-04-16T10:24:22.073Z,20.75
2019-04-16T10:26:56.966Z,20.68
2019-04-16T10:29:27.951Z,20.15
2019-04-16T10:31:57.843Z,20.88
2019-04-16T10:34:27.678Z,21.42
2019-04-16T10:36:57.682Z,20.80
2019-04-16T10:39:29.327Z,20.30
2019-04-16T10:42:13.078Z,21.40
2019-04-16T10:45:00.853Z,19.40
2019-04-16T10:47:51.440Z,20.30
2019-04-16T10:50:25.922Z,20.82
2019-04-16T10:53:12.462Z,20.05
2019-04-16T10:55:46.816Z,22.52
2019-04-16T10:58:24.043Z,21.87
2019-04-16T11:00:58.162Z,19.15
2019-04-16T11:03:38.522Z,20.40
2019-04-16T11:06:15.904Z,19.12
2019-04-16T11:08:45.805Z,19.80
2019-04-16T11:11:15.676Z,19.73
2019-04-16T11:13:59.153Z,19.50
2019-04-16T11:16:19.325Z,18.62
2019-04-16T11:18:49.284Z,19.25
2019-04-16T11:21:19.222Z,19.48
2019-04-16T11:23:49.001Z,21.02
2019-04-16T11:26:19.385Z,21.12
2019-04-16T11:28:49.321Z,21.00
2019-04-16T11:31:23.599Z,19.87
2019-04-16T11:33:53.422Z,20.35
2019-04-16T11:36:23.460Z,18.65
2019-04-16T11:38:53.279Z,18.07
2019-04-16T11:41:23.173Z,20.17
2019-04-16T11:43:53.085Z,18.07
2019-04-16T11:46:22.901Z,17.10
2019-04-16T11:48:52.833Z,17.77
2019-04-16T11:51:24.456Z,20.50
2019-04-16T11:53:54.404Z,17.57
2019-04-16T11:56:24.273Z,16.73
2019-04-16T11:58:57.268Z,18.20
2019-04-16T12:01:33.204Z,16.35
2019-04-16T12:04:15.234Z,17.65
2019-04-16T12:06:49.530Z,15.43
2019-04-16T12:09:27.050Z,13.30
2019-04-16T12:11:58.567Z,13.93
2019-04-16T12:14:48.340Z,13.68
2019-04-16T12:17:29.038Z,16.40
2019-04-16T12:20:00.679Z,18.15
2019-04-16T12:22:38.407Z,18.50
2019-04-16T12:25:29.050Z,17.65
2019-04-16T12:28:06.505Z,15.85
2019-04-16T12:30:44.486Z,16.65
2019-04-16T12:33:18.721Z,16.27
2019-04-16T12:35:59.041Z,16.02
2019-04-16T12:38:42.405Z,18.00
2019-04-16T12:41:26.110Z,16.52
2019-04-16T12:44:00.377Z,16.57
2019-04-16T12:46:48.062Z,17.23
2019-04-16T12:49:19.516Z,18.40
2019-04-16T12:51:51.045Z,16.42
2019-04-16T12:54:26.265Z,18.25
2019-04-16T12:57:03.509Z,16.15
2019-04-16T12:59:34.978Z,16.23
2019-04-16T13:02:22.856Z,16.50
2019-04-16T13:05:03.206Z,14.85
2019-04-16T13:07:49.708Z,14.83
2019-04-16T13:10:36.226Z,13.25
2019-04-16T13:13:13.583Z,13.32
2019-04-16T13:15:48.068Z,12.15
2019-04-16T13:18:25.246Z,14.78
2019-04-16T13:21:05.107Z,13.68
2019-04-16T13:23:35.736Z,13.88
2019-04-16T13:26:25.405Z,15.25
2019-04-16T13:28:56.256Z,17.70
2019-04-16T13:31:26.212Z,17.32
2019-04-16T13:33:56.113Z,16.12
2019-04-16T13:36:27.898Z,16.67
2019-04-16T13:39:09.177Z,17.50
2019-04-16T13:41:40.203Z,18.45
2019-04-16T13:44:11.763Z,19.55
2019-04-16T13:46:41.671Z,19.02
2019-04-16T13:49:16.008Z,17.87
2019-04-16T13:51:47.766Z,18.05
2019-04-16T13:54:28.095Z,18.20
2019-04-16T13:57:03.665Z,17.95
2019-04-16T13:59:51.258Z,18.77
2019-04-16T14:02:34.832Z,19.62
2019-04-16T14:05:05.791Z,17.23
2019-04-16T14:07:35.798Z,18.37
2019-04-16T14:10:06.552Z,16.73
2019-04-16T14:12:42.286Z,16.57
2019-04-16T14:15:09.223Z,18.17
2019-04-16T14:17:51.819Z,17.65
2019-04-16T14:20:12.696Z,18.23
2019-04-16T14:22:42.113Z,16.62
2019-04-16T14:25:12.008Z,16.17
2019-04-16T14:27:41.917Z,16.32
2019-04-16T14:30:16.022Z,15.65
2019-04-16T14:32:45.922Z,15.90
2019-04-16T14:35:31.981Z,16.27
2019-04-16T14:37:48.921Z,16.48
2019-04-16T14:40:25.438Z,15.88
2019-04-16T14:42:57.563Z,14.83
2019-04-16T14:45:29.155Z,14.28
2019-04-16T14:47:59.213Z,14.60
2019-04-16T14:50:32.839Z,16.05
2019-04-16T14:53:00.588Z,15.35
2019-04-16T14:55:59.027Z,15.72
2019-04-16T14:58:29.036Z,15.32
2019-04-16T15:01:15.578Z,16.75
2019-04-16T15:03:49.781Z,16.97
2019-04-16T15:06:26.960Z,16.65
2019-04-16T15:09:04.287Z,17.32
2019-04-16T15:11:42.043Z,16.67
2019-04-16T15:14:16.226Z,17.80
2019-04-16T15:16:50.758Z,17.42
2019-04-16T15:19:38.120Z,18.42
2019-04-16T15:22:18.613Z,17.37
2019-04-16T15:25:02.371Z,16.75
2019-04-16T15:27:42.941Z,14.93
2019-04-16T15:30:30.721Z,16.12
2019-04-16T15:33:08.205Z,14.13
2019-04-16T15:35:39.765Z,14.03
2019-04-16T15:38:16.883Z,13.15
2019-04-16T15:40:48.355Z,14.13
2019-04-16T15:43:31.760Z,14.80
2019-04-16T15:46:25.249Z,14.70
2019-04-16T15:48:44.780Z,15.68
2019-04-16T15:51:23.377Z,16.37
2019-04-16T15:54:01.913Z,15.25
2019-04-16T15:56:45.832Z,15.93
2019-04-16T15:59:26.161Z,16.27
2019-04-16T16:02:03.662Z,17.55
2019-04-16T16:04:50.280Z,17.10
2019-04-16T16:07:24.009Z,16.02
2019-04-16T16:10:00.161Z,15.83
2019-04-16T16:12:30.527Z,15.40
2019-04-16T16:15:00.356Z,16.45
2019-04-16T16:17:47.050Z,16.75
2019-04-16T16:20:16.964Z,16.62
2019-04-16T16:22:46.778Z,16.87
2019-04-16T16:25:16.673Z,16.93
2019-04-16T16:27:47.153Z,18.17
2019-04-16T16:30:18.322Z,18.07
2019-04-16T16:32:48.155Z,17.35
2019-04-16T16:35:18.162Z,16.37
2019-04-16T16:37:48.035Z,17.15
2019-04-16T16:40:18.019Z,16.95
2019-04-16T16:42:48.067Z,16.32
2019-04-16T16:45:19.731Z,16.48
2019-04-16T16:47:49.691Z,16.57
2019-04-16T16:50:19.652Z,18.30
2019-04-16T16:53:00.265Z,16.50
2019-04-16T16:55:31.881Z,16.65
2019-04-16T16:58:20.996Z,17.32
2019-04-16T17:01:05.063Z,16.82
2019-04-16T17:03:52.318Z,14.68
2019-04-16T17:06:21.923Z,15.83
2019-04-16T17:08:51.820Z,16.02
2019-04-16T17:11:21.653Z,16.60
2019-04-16T17:13:51.553Z,15.93
2019-04-16T17:16:21.399Z,16.50
2019-04-16T17:18:51.210Z,16.37
2019-04-16T17:21:21.123Z,15.68
2019-04-16T17:23:50.944Z,15.45
2019-04-16T17:26:20.756Z,16.12
2019-04-16T17:28:50.651Z,16.35
2019-04-16T17:31:20.651Z,15.90
2019-04-16T17:33:50.551Z,16.17
2019-04-16T17:36:20.371Z,14.87
2019-04-16T17:38:50.268Z,16.07
2019-04-16T17:41:24.700Z,16.02
2019-04-16T17:44:01.831Z,17.32
2019-04-16T17:46:35.326Z,17.20
2019-04-16T17:49:06.800Z,17.42
2019-04-16T17:51:38.339Z,18.07
2019-04-16T17:54:12.415Z,18.02
2019-04-16T17:57:00.292Z,17.95
2019-04-16T17:59:31.775Z,18.07
2019-04-16T18:02:04.512Z,19.90
2019-04-16T18:04:38.825Z,18.55
2019-04-16T18:07:17.027Z,19.10
2019-04-16T18:10:01.797Z,19.07
2019-04-16T18:12:35.032Z,20.32
2019-04-16T18:15:10.876Z,19.23
2019-04-16T18:17:47.202Z,19.75
2019-04-16T18:20:24.461Z,19.05
2019-04-16T18:23:08.020Z,19.05
2019-04-16T18:25:57.395Z,18.65
2019-04-16T18:28:31.685Z,17.95
2019-04-16T18:31:03.148Z,18.12
2019-04-16T18:33:34.702Z,17.95
2019-04-16T18:36:06.241Z,17.57
2019-04-16T18:38:44.713Z,17.50
2019-04-16T18:41:31.550Z,16.62
2019-04-16T18:44:08.793Z,16.48
2019-04-16T18:46:40.272Z,15.65
2019-04-16T18:49:21.026Z,15.65
2019-04-16T18:51:50.911Z,16.37
2019-04-16T18:54:20.785Z,15.43
2019-04-16T18:56:50.595Z,15.65
2019-04-16T18:59:20.485Z,15.38
2019-04-16T19:01:55.765Z,15.53
2019-04-16T19:04:25.656Z,15.45
2019-04-16T19:06:55.566Z,15.25
2019-04-16T19:09:25.581Z,14.43
2019-04-16T19:11:55.421Z,15.13
2019-04-16T19:14:25.258Z,15.35
2019-04-16T19:16:55.090Z,15.50
2019-04-16T19:19:24.983Z,14.83
2019-04-16T19:21:55.004Z,15.08
2019-04-16T19:24:25.141Z,16.15
2019-04-16T19:26:55.261Z,15.55
2019-04-16T19:29:25.107Z,15.30
2019-04-16T19:31:56.873Z,15.45
2019-04-16T19:34:26.708Z,15.13
2019-04-16T19:36:59.542Z,16.12
2019-04-16T19:39:28.142Z,16.70
2019-04-16T19:41:58.323Z,15.30
2019-04-16T19:44:28.362Z,16.73
2019-04-16T19:46:58.341Z,17.65
2019-04-16T19:49:28.465Z,17.12
2019-04-16T19:51:58.465Z,15.98
2019-04-16T19:54:31.531Z,16.95
2019-04-16T19:57:00.029Z,16.80
2019-04-16T19:59:30.037Z,17.87
2019-04-16T20:02:01.782Z,16.93
2019-04-16T20:04:31.628Z,16.70
2019-04-16T20:07:01.991Z,16.17
2019-04-16T20:09:32.410Z,16.37
2019-04-16T20:12:02.354Z,16.62
2019-04-16T20:14:35.255Z,16.48
2019-04-16T20:17:03.886Z,16.20
2019-04-16T20:19:35.458Z,16.23
2019-04-16T20:22:05.626Z,16.70
2019-04-16T20:24:35.545Z,17.45
2019-04-16T20:27:07.362Z,17.27
2019-04-16T20:29:37.556Z,17.52
2019-04-16T20:32:07.470Z,18.32
2019-04-16T20:34:37.472Z,17.60
2019-04-16T20:37:07.386Z,18.17
2019-04-16T20:39:40.625Z,18.30
2019-04-16T20:42:09.275Z,18.57
2019-04-16T20:44:39.348Z,18.40
2019-04-16T20:47:09.273Z,18.48
2019-04-16T20:49:39.197Z,19.17
2019-04-16T20:52:09.368Z,19.80
2019-04-16T20:54:44.071Z,19.55
2019-04-16T20:59:41.607Z,20.55
2019-04-16T21:02:11.505Z,20.10
2019-04-16T21:04:41.420Z,20.70
2019-04-16T21:07:14.549Z,21.02
2019-04-16T21:09:42.810Z,20.37
2019-04-16T21:12:13.847Z,20.75
2019-04-16T21:14:43.808Z,19.12
2019-04-16T21:17:13.712Z,20.05
2019-04-16T21:19:47.894Z,20.08
2019-04-16T21:22:18.277Z,21.02
2019-04-16T21:24:48.187Z,21.65
2019-04-16T21:27:18.091Z,20.82
2019-04-16T21:29:47.988Z,20.37
2019-04-16T21:32:25.226Z,20.72
2019-04-16T21:35:05.757Z,19.50
2019-04-16T21:37:35.561Z,20.35
2019-04-16T21:40:07.098Z,20.20
2019-04-16T21:42:36.947Z,20.45
2019-04-16T21:45:07.101Z,20.62
2019-04-16T21:47:36.937Z,21.12
2019-04-16T21:50:07.691Z,20.68
2019-04-16T21:52:37.575Z,18.98
2019-04-16T21:55:08.136Z,21.10
2019-04-16T21:57:38.045Z,20.08
2019-04-16T22:00:09.601Z,19.40
2019-04-16T22:05:11.187Z,19.32
2019-04-16T22:07:41.034Z,19.10
2019-04-16T22:10:10.872Z,20.40
2019-04-16T22:12:40.698Z,20.10
2019-04-16T22:15:10.518Z,19.80
2019-04-16T22:17:40.413Z,20.43
2019-04-16T22:20:10.316Z,20.85
2019-04-16T22:22:40.155Z,20.97
2019-04-16T22:25:09.992Z,19.95
2019-04-16T22:27:40.461Z,19.62
2019-04-16T22:30:10.320Z,19.90
2019-04-16T22:32:40.249Z,20.20
2019-04-16T22:35:10.069Z,20.30
2019-04-16T22:37:39.916Z,19.17
2019-04-16T22:40:11.399Z,19.65
2019-04-16T22:42:42.918Z,19.50
2019-04-16T22:45:14.378Z,19.80
2019-04-16T22:47:45.922Z,18.80
2019-04-16T22:50:17.317Z,20.82
2019-04-16T22:52:47.420Z,21.20
2019-04-16T22:55:17.269Z,21.77
2019-04-16T22:57:47.098Z,21.23
2019-04-16T23:00:30.613Z,21.50
2019-04-16T23:03:01.425Z,21.95
2019-04-16T23:05:32.008Z,22.37
2019-04-16T23:08:03.042Z,22.32
2019-04-16T23:10:32.868Z,22.13
2019-04-16T23:13:02.984Z,22.13
2019-04-16T23:15:33.473Z,22.90
2019-04-16T23:18:03.385Z,21.85
2019-04-16T23:20:36.984Z,22.37
2019-04-16T23:23:06.566Z,22.05
2019-04-16T23:25:36.721Z,22.77
2019-04-16T23:28:09.510Z,21.65
2019-04-16T23:30:38.109Z,22.35
2019-04-16T23:33:08.003Z,20.62
2019-04-16T23:35:43.403Z,21.80
2019-04-16T23:38:09.517Z,21.55
2019-04-16T23:40:40.736Z,20.70
2019-04-16T23:43:18.763Z,21.55
2019-04-16T23:46:01.689Z,21.68
2019-04-16T23:48:49.908Z,21.75
2019-04-16T23:51:29.962Z,22.00
2019-04-16T23:54:07.971Z,20.85
2019-04-16T23:56:43.180Z,22.90
2019-04-16T23:59:17.312Z,21.60
